메인 페이지
METAR-TAF:

METAR-TAF

공항 :

Tinker Air Force Base

오클라호마시티 / Tinker, 오클라호마, 미국

위도: 35-25N, 경도: 097-23W, 고도: 394m

현재 날씨관측

예보는 52분 전, 13:56시(UTC)에 발표되었습니다.
15kt
온도 21°C
습도 83%
기압 1014 hPa
시정: 16.1km
맑음

METAR: KTIK 221356Z AUTO 19015KT 10SM CLR 21/18 A2993 RMK AO2 SLP133 T02050182

시각: 09:48 (14:48 UTC)

예보

예보는 5 시간 48분 전, 09:00시(UTC)에 발표되었습니다.
예보 대상 시간: 22일 09시부터 23일 15시까지 (UTC)
10kt, 순간 최대 풍속 15kt
시정 10km 이상
고도 1200ft 상공 구름 조금
전환 중
22일 15시부터 22일 16시까지 (UTC)
20kt, 순간 최대 풍속 30kt
시정 10km 이상
고도 10000ft 상공 구름 보통
전환 중
22일 22시부터 22일 23시까지 (UTC)
12kt
시정 10km 이상
고도 2000ft 상공 구름 보통
전환 중
23일 07시부터 23일 08시까지 (UTC)
9kt
시정: 8000m
고도 1000ft 상공 구름 많음
약한소나기
전환 중
23일 09시부터 23일 10시까지 (UTC)
북북서25kt, 순간 최대 풍속 35kt
시정: 6000m
고도 500ft 상공 흐림
약한소나기

TAF: KTIK 220900Z 2209/2315 18010G15KT 9999 FEW012 510052 QNH2991INS BECMG 2215/2216 18020G30KT 9999 SCT100 510052 QNH2993INS BECMG 2222/2223 18012KT 9999 SCT020 510042 QNH2980INS BECMG 2307/2308 19009KT 8000 -SHRA BKN010 510042 QNH2984INS BECMG 2309/2310 34025G35KT 6000 -SHRA OVC005 510052 QNH2996INS TX26/2221Z TN05/2315Z

4,000개 이상의 공항 관측 자료 및 예보 (METAR 및 TAF 보고).

지도상에서 검색 가능한 기상관측소가 노란 점과 빨간 점으로 표시되어 있습니다.

기상관측소 명을 보려면 표시 위로 마우스를 이동하세요.

날씨 관측과 예보를 보려면 클릭하세요.

지도 변경 : 확대하려면 엑스 표시가 있는 녹색 버튼, 축소하려면 빼기 표시가 있는 녹색 버튼, 다음 페이지의 지도를 보려면 녹색 화살표를 클릭하세요.


METAR-TAF: